Time;durP1;ratioP1;P1;durP2;ratioP2;P2;SDS_P1;SDS_P2;PMS_P1;PMS_P2;Temp;Humidity;BMP_temperature;BMP_pressure;BME280_temperature;BME280_humidity;BME280_pressure;Samples;Min_cycle;Max_cycle;Signal;HPM_P1;HPM_P2
2022/03/24 00:01:20;;;;;;;12.70;8.77;;;;;;;19.79;40.71;102891.34;5032288;28;20271;-68
2022/03/24 00:03:46;;;;;;;13.77;9.85;;;;;;;19.78;40.49;102900.22;5032517;28;20662;-69
2022/03/24 00:06:12;;;;;;;13.70;9.07;;;;;;;19.77;40.44;102893.22;5032788;28;20052;-68
2022/03/24 00:08:37;;;;;;;13.10;8.43;;;;;;;19.76;40.74;102894.16;5031593;28;20497;-68
2022/03/24 00:11:03;;;;;;;16.08;8.55;;;;;;;19.72;39.72;102896.06;5032576;28;20033;-68
2022/03/24 00:13:28;;;;;;;11.87;8.93;;;;;;;19.70;40.60;102889.19;5032536;28;20117;-68
2022/03/24 00:15:53;;;;;;;11.93;8.37;;;;;;;19.69;40.57;102890.09;5031571;28;20272;-68
2022/03/24 00:18:18;;;;;;;11.13;8.13;;;;;;;19.67;40.64;102892.00;5032649;28;20274;-68
2022/03/24 00:20:44;;;;;;;12.53;8.30;;;;;;;19.66;40.64;102890.28;5032167;28;20705;-68
2022/03/24 00:23:09;;;;;;;11.68;8.60;;;;;;;19.64;40.61;102895.66;5031911;28;20282;-68
2022/03/24 00:25:34;;;;;;;13.48;8.27;;;;;;;19.62;40.72;102888.75;5032092;28;20025;-69
2022/03/24 00:28:00;;;;;;;11.85;8.40;;;;;;;19.60;40.62;102888.84;5032675;28;20462;-68
2022/03/24 00:30:26;;;;;;;11.43;8.77;;;;;;;19.60;40.45;102891.50;5031859;28;20342;-68
2022/03/24 00:32:51;;;;;;;11.90;9.00;;;;;;;19.56;40.38;102882.00;5032351;28;20033;-68
2022/03/24 00:35:16;;;;;;;13.68;8.60;;;;;;;19.57;40.63;102887.22;5031747;28;20377;-68
2022/03/24 00:37:42;;;;;;;12.35;8.18;;;;;;;19.54;40.61;102882.09;5032184;28;20025;-68
2022/03/24 00:40:08;;;;;;;11.63;9.33;;;;;;;19.54;40.59;102884.72;5032221;28;20030;-69
2022/03/24 00:42:37;;;;;;;11.85;9.10;;;;;;;19.54;40.26;102886.53;5031625;28;20279;-69
2022/03/24 00:45:06;;;;;;;12.63;8.40;;;;;;;19.54;40.41;102881.25;5033923;28;20033;-68
2022/03/24 00:47:34;;;;;;;11.70;8.63;;;;;;;19.53;40.43;102882.19;5036683;28;20366;-69
2022/03/24 00:49:59;;;;;;;13.02;8.82;;;;;;;19.54;40.36;102879.44;5035303;28;20018;-69
2022/03/24 00:52:24;;;;;;;12.90;9.30;;;;;;;19.52;40.29;102878.69;5035971;28;20031;-69
2022/03/24 00:54:50;;;;;;;11.23;7.90;;;;;;;19.52;40.34;102881.34;5035770;28;20024;-68
2022/03/24 00:57:15;;;;;;;12.20;8.53;;;;;;;19.53;40.20;102879.53;5035400;28;20067;-68
2022/03/24 00:59:41;;;;;;;12.53;8.87;;;;;;;19.51;40.07;102871.69;5035691;28;20758;-68
2022/03/24 01:02:09;;;;;;;13.02;8.80;;;;;;;19.50;40.37;102867.34;5036056;28;20356;-68
2022/03/24 01:04:35;;;;;;;13.07;8.88;;;;;;;19.48;40.29;102877.13;5034733;28;20032;-68
2022/03/24 01:07:01;;;;;;;13.30;9.13;;;;;;;19.46;40.08;102871.09;5035644;28;20017;-68
2022/03/24 01:09:26;;;;;;;11.88;8.93;;;;;;;19.46;40.17;102872.88;5035650;28;20021;-69
2022/03/24 01:11:51;;;;;;;12.02;9.35;;;;;;;19.44;40.38;102865.03;5034357;28;20056;-67
2022/03/24 01:14:17;;;;;;;13.80;9.13;;;;;;;19.43;39.94;102860.69;5035749;28;20032;-68
2022/03/24 01:16:43;;;;;;;14.07;9.55;;;;;;;19.42;40.07;102858.97;5035506;28;20022;-68
2022/03/24 01:19:09;;;;;;;11.60;8.55;;;;;;;19.42;40.01;102858.13;5034891;28;20378;-68
2022/03/24 01:21:36;;;;;;;13.55;9.70;;;;;;;19.43;40.22;102859.84;5035298;28;20022;-68
2022/03/24 01:24:01;;;;;;;13.80;9.15;;;;;;;19.43;39.93;102865.13;5035355;28;20462;-68
2022/03/24 01:26:27;;;;;;;11.50;9.27;;;;;;;19.38;39.91;102865.38;5034855;28;20032;-68
2022/03/24 01:28:53;;;;;;;11.38;9.05;;;;;;;19.39;39.97;102856.47;5035036;28;20797;-68
2022/03/24 01:31:20;;;;;;;12.48;9.68;;;;;;;19.38;39.90;102858.28;5035458;28;20021;-68
2022/03/24 01:33:47;;;;;;;11.98;9.10;;;;;;;19.36;39.74;102854.88;5034423;28;20029;-68
2022/03/24 01:36:14;;;;;;;13.27;9.48;;;;;;;19.35;40.17;102854.97;5035332;28;20155;-68
2022/03/24 01:38:39;;;;;;;11.93;9.88;;;;;;;19.31;40.19;102843.72;5034458;28;20080;-68
2022/03/24 01:41:07;;;;;;;13.45;9.70;;;;;;;19.30;40.01;102846.44;5035229;28;20539;-68
2022/03/24 01:43:32;;;;;;;15.15;10.55;;;;;;;19.28;40.20;102843.88;5034906;28;20030;-68
2022/03/24 01:45:59;;;;;;;11.82;8.88;;;;;;;19.28;40.02;102843.00;5034297;28;20029;-68
2022/03/24 01:48:24;;;;;;;12.13;9.77;;;;;;;19.25;39.95;102838.75;5035114;28;20033;-68
2022/03/24 01:50:50;;;;;;;14.32;9.95;;;;;;;19.24;39.90;102838.84;5034821;28;20017;-68
2022/03/24 01:53:18;;;;;;;12.82;9.27;;;;;;;19.25;39.97;102837.88;5034262;28;20029;-67
2022/03/24 01:55:44;;;;;;;14.93;10.00;;;;;;;19.24;39.82;102834.41;5034683;28;20112;-68
2022/03/24 01:58:11;;;;;;;11.63;9.20;;;;;;;19.23;40.07;102832.69;5034853;28;20116;-68
2022/03/24 02:00:37;;;;;;;12.32;9.40;;;;;;;19.22;40.18;102833.63;5033729;28;20539;-68
2022/03/24 02:03:04;;;;;;;15.45;10.55;;;;;;;19.20;40.32;102831.06;5034742;28;20104;-68
2022/03/24 02:05:34;;;;;;;14.50;9.82;;;;;;;19.18;39.88;102825.03;5034742;28;20025;-68
2022/03/24 02:08:03;;;;;;;14.00;10.05;;;;;;;19.18;39.93;102825.03;5034143;28;20040;-69
2022/03/24 02:10:33;;;;;;;13.05;9.25;;;;;;;19.17;39.88;102833.88;5034557;28;20465;-69
2022/03/24 02:12:59;;;;;;;12.02;8.95;;;;;;;19.14;39.99;102830.56;5034413;28;20045;-68
2022/03/24 02:15:26;;;;;;;12.88;9.18;;;;;;;19.12;39.84;102828.00;5033823;28;20447;-68
2022/03/24 02:17:52;;;;;;;12.27;10.07;;;;;;;19.14;39.95;102828.75;5034161;28;20017;-69
2022/03/24 02:20:19;;;;;;;12.77;9.50;;;;;;;19.12;40.10;102824.47;5034259;28;20553;-69
2022/03/24 02:22:45;;;;;;;12.93;9.77;;;;;;;19.11;39.89;102828.09;5033535;28;20033;-68
2022/03/24 02:25:11;;;;;;;15.35;10.50;;;;;;;19.11;39.71;102823.66;5034509;28;20037;-68
2022/03/24 02:27:37;;;;;;;11.82;9.30;;;;;;;19.12;39.76;102822.72;5034020;28;20018;-68
2022/03/24 02:30:04;;;;;;;12.57;9.80;;;;;;;19.10;39.87;102829.00;5033334;28;20060;-68
2022/03/24 02:32:30;;;;;;;10.88;9.18;;;;;;;19.05;39.87;102825.78;5033980;28;20461;-68
2022/03/24 02:34:55;;;;;;;14.40;9.63;;;;;;;19.07;39.91;102822.09;5032993;28;20029;-68
2022/03/24 02:37:23;;;;;;;12.95;9.40;;;;;;;19.06;39.95;102825.69;5034802;28;20017;-68
2022/03/24 02:39:51;;;;;;;12.32;9.18;;;;;;;19.06;39.83;102827.47;5033763;28;20060;-68
2022/03/24 02:42:19;;;;;;;13.20;9.82;;;;;;;19.07;39.82;102831.81;5033289;28;20071;-68
2022/03/24 02:44:46;;;;;;;14.13;9.60;;;;;;;19.03;39.97;102828.50;5033659;28;20362;-68
2022/03/24 02:47:12;;;;;;;13.68;10.15;;;;;;;19.00;39.75;102832.13;5033766;28;20034;-68
2022/03/24 02:49:39;;;;;;;12.85;9.48;;;;;;;19.01;39.85;102831.22;5032925;28;20025;-69
2022/03/24 02:52:06;;;;;;;13.57;9.90;;;;;;;18.99;39.84;102826.94;5033930;28;20152;-68
2022/03/24 02:54:31;;;;;;;11.25;8.93;;;;;;;18.97;39.87;102820.91;5033799;28;20033;-68
2022/03/24 02:56:57;;;;;;;15.80;10.45;;;;;;;18.95;39.95;102826.25;5032520;28;20021;-68
2022/03/24 02:59:23;;;;;;;12.35;9.68;;;;;;;18.94;39.76;102824.53;5033553;28;20031;-68
2022/03/24 03:01:55;;;;;;;15.63;9.93;;;;;;;18.91;39.77;102826.50;5033317;28;20026;-68
2022/03/24 03:04:20;;;;;;;12.52;9.90;;;;;;;18.90;39.78;102823.03;5032951;28;20022;-68
2022/03/24 03:06:46;;;;;;;13.88;10.10;;;;;;;18.91;39.88;102826.50;5033353;28;20024;-68
2022/03/24 03:09:18;;;;;;;14.37;10.40;;;;;;;18.91;40.05;102829.16;5033094;28;20444;-68
2022/03/24 03:11:45;;;;;;;13.57;10.35;;;;;;;18.88;39.89;102824.88;5032316;28;20688;-69
2022/03/24 03:14:12;;;;;;;14.98;10.85;;;;;;;18.87;39.65;102820.53;5033409;28;20033;-68
2022/03/24 03:16:38;;;;;;;16.60;10.70;;;;;;;18.87;39.69;102822.31;5032939;28;20033;-68
2022/03/24 03:19:04;;;;;;;12.40;9.95;;;;;;;18.85;39.83;102825.91;5032553;28;20021;-68
2022/03/24 03:21:30;;;;;;;13.80;10.25;;;;;;;18.87;39.48;102828.47;5033365;28;20021;-68
2022/03/24 03:23:55;;;;;;;15.15;10.82;;;;;;;18.87;39.52;102830.22;5033005;28;20519;-68
2022/03/24 03:26:23;;;;;;;15.55;10.88;;;;;;;18.84;39.57;102825.97;5032555;28;20469;-67
2022/03/24 03:28:52;;;;;;;14.23;10.27;;;;;;;18.82;39.64;102822.53;5032856;28;20045;-68
2022/03/24 03:31:17;;;;;;;15.02;10.77;;;;;;;18.82;39.93;102822.53;5032606;28;20108;-68
2022/03/24 03:33:42;;;;;;;14.63;10.40;;;;;;;18.79;39.93;102817.41;5032760;28;20167;-68
2022/03/24 03:36:08;;;;;;;16.37;10.43;;;;;;;18.78;39.83;102823.63;5033027;28;20025;-68
2022/03/24 03:38:33;;;;;;;14.20;10.07;;;;;;;18.76;39.44;102820.22;5032329;28;20278;-68
2022/03/24 03:41:02;;;;;;;13.73;10.35;;;;;;;18.74;39.66;102820.31;5032927;28;20120;-68
2022/03/24 03:43:27;;;;;;;14.57;10.88;;;;;;;18.76;39.86;102828.16;5032793;28;20096;-68
2022/03/24 03:45:53;;;;;;;14.32;10.32;;;;;;;18.76;39.76;102830.78;5031695;28;20231;-68
2022/03/24 03:48:18;;;;;;;14.23;10.70;;;;;;;18.76;39.58;102828.16;5032882;28;20045;-68
2022/03/24 03:50:43;;;;;;;14.52;10.38;;;;;;;18.77;39.53;102829.84;5032815;28;20290;-69
2022/03/24 03:53:10;;;;;;;15.50;10.82;;;;;;;18.76;39.55;102829.00;5032232;28;20420;-68
2022/03/24 03:55:38;;;;;;;12.93;9.98;;;;;;;18.73;39.48;102829.16;5032641;28;20033;-68
2022/03/24 03:58:05;;;;;;;15.73;10.63;;;;;;;18.71;39.85;102830.16;5032624;28;20465;-68
2022/03/24 04:03:14;;;;;;;14.25;10.30;;;;;;;18.65;39.46;102826.06;5032751;28;20045;-68
2022/03/24 04:05:39;;;;;;;13.35;10.82;;;;;;;18.64;39.80;102826.97;5032402;28;20029;-68
2022/03/24 04:08:07;;;;;;;14.77;10.93;;;;;;;18.64;39.56;102826.97;5031930;28;20361;-68
2022/03/24 04:10:33;;;;;;;13.70;10.98;;;;;;;18.60;39.75;102820.19;5032551;28;20045;-68
2022/03/24 04:12:58;;;;;;;13.98;10.80;;;;;;;18.61;39.85;102827.16;5032487;28;20527;-68
2022/03/24 04:15:24;;;;;;;15.38;10.80;;;;;;;18.61;40.01;102829.78;5032062;28;20512;-67
2022/03/24 04:17:53;;;;;;;14.30;10.77;;;;;;;18.61;39.83;102822.75;5032355;28;20075;-68
2022/03/24 04:20:23;;;;;;;14.32;10.45;;;;;;;18.60;40.18;102823.66;5033207;28;20069;-69
2022/03/24 04:22:50;;;;;;;12.82;10.35;;;;;;;18.62;39.96;102824.44;5036318;28;20048;-67
2022/03/24 04:25:15;;;;;;;13.30;10.52;;;;;;;18.69;39.79;102830.22;5036495;28;20091;-67
2022/03/24 04:27:41;;;;;;;15.53;11.10;;;;;;;18.75;39.66;102835.19;5035291;28;20021;-67
2022/03/24 04:30:08;;;;;;;12.68;10.23;;;;;;;18.79;39.05;102823.56;5036704;28;20270;-67
2022/03/24 04:32:33;;;;;;;12.85;10.25;;;;;;;18.84;39.22;102828.63;5036196;28;20013;-67
2022/03/24 04:34:59;;;;;;;15.52;10.43;;;;;;;18.88;39.03;102830.16;5035758;28;20599;-68
2022/03/24 04:37:25;;;;;;;14.57;10.95;;;;;;;18.90;38.89;102822.16;5036422;28;20520;-67
2022/03/24 04:39:50;;;;;;;14.07;10.52;;;;;;;18.91;38.91;102827.34;5035996;28;20540;-67
2022/03/24 04:42:16;;;;;;;14.55;10.40;;;;;;;18.93;38.95;102824.63;5035446;28;20069;-67
2022/03/24 04:44:41;;;;;;;13.57;10.25;;;;;;;18.93;38.67;102828.13;5036010;28;20025;-68
2022/03/24 04:47:07;;;;;;;14.93;10.55;;;;;;;18.91;38.86;102821.22;5036239;28;20025;-67
2022/03/24 04:49:32;;;;;;;13.63;10.20;;;;;;;18.94;38.60;102826.34;5035346;28;20477;-67
2022/03/24 04:51:58;;;;;;;15.25;10.30;;;;;;;18.94;38.79;102827.19;5035807;28;20029;-67
2022/03/24 04:54:23;;;;;;;14.53;10.33;;;;;;;18.92;38.54;102826.41;5035918;28;20091;-68
2022/03/24 04:56:49;;;;;;;13.48;9.77;;;;;;;18.92;38.51;102829.06;5035152;28;20275;-68
2022/03/24 04:59:15;;;;;;;13.30;10.20;;;;;;;18.91;38.38;102819.41;5035952;28;20496;-68
2022/03/24 05:01:40;;;;;;;14.27;10.38;;;;;;;18.92;38.51;102826.41;5035440;28;20682;-67
2022/03/24 05:04:05;;;;;;;14.75;10.85;;;;;;;18.90;38.57;102830.06;5034861;28;20026;-67
2022/03/24 05:06:31;;;;;;;16.35;10.13;;;;;;;18.90;38.37;102838.00;5035527;28;20022;-67
2022/03/24 05:08:57;;;;;;;14.45;10.43;;;;;;;18.88;38.62;102838.06;5035138;28;20028;-67
2022/03/24 05:11:23;;;;;;;14.82;10.68;;;;;;;18.86;38.72;102834.66;5034989;28;20112;-67
2022/03/24 05:13:48;;;;;;;14.25;10.45;;;;;;;18.89;38.78;102836.31;5034865;28;20037;-67
2022/03/24 05:16:14;;;;;;;15.00;10.15;;;;;;;18.89;39.07;102833.66;5035510;28;20021;-67
2022/03/24 05:18:39;;;;;;;13.18;10.35;;;;;;;18.92;38.77;102829.06;5034233;28;20500;-67
2022/03/24 05:21:04;;;;;;;11.97;9.80;;;;;;;18.98;38.99;102839.31;5035145;28;20029;-67
2022/03/24 05:23:30;;;;;;;13.40;10.43;;;;;;;19.02;38.93;102832.06;5035144;28;20626;-67
2022/03/24 05:25:56;;;;;;;13.32;10.00;;;;;;;19.05;38.79;102839.81;5034114;28;20804;-67
2022/03/24 05:28:21;;;;;;;12.40;9.43;;;;;;;19.05;38.58;102834.53;5035348;28;20029;-68
2022/03/24 05:30:47;;;;;;;14.02;10.27;;;;;;;19.07;38.48;102842.38;5033822;28;20492;-68
2022/03/24 05:33:13;;;;;;;12.13;9.57;;;;;;;19.08;38.40;102838.81;5035056;28;20056;-67
2022/03/24 05:35:38;;;;;;;13.15;9.70;;;;;;;19.07;38.32;102848.50;5034751;28;20029;-67
2022/03/24 05:38:05;;;;;;;13.10;10.30;;;;;;;19.09;38.17;102838.75;5034158;28;20017;-68
2022/03/24 05:40:31;;;;;;;13.73;9.68;;;;;;;19.08;38.49;102842.31;5034927;28;20451;-68
2022/03/24 05:42:57;;;;;;;12.30;10.00;;;;;;;19.09;38.27;102845.78;5034824;28;20139;-68
2022/03/24 05:45:22;;;;;;;13.38;9.70;;;;;;;19.07;38.49;102845.03;5034169;28;20468;-68
2022/03/24 05:47:48;;;;;;;14.30;10.20;;;;;;;19.06;38.21;102851.25;5034493;28;20022;-69
2022/03/24 05:50:13;;;;;;;15.48;10.50;;;;;;;19.03;37.87;102845.19;5034806;28;20266;-69
2022/03/24 05:52:39;;;;;;;13.40;10.23;;;;;;;19.03;38.15;102849.63;5033588;28;20083;-69
2022/03/24 05:55:05;;;;;;;17.52;11.18;;;;;;;19.02;37.78;102855.84;5034887;28;20029;-68
2022/03/24 05:57:30;;;;;;;16.52;10.35;;;;;;;19.02;38.02;102858.50;5034830;28;20017;-68
2022/03/24 05:59:55;;;;;;;14.52;10.38;;;;;;;19.00;38.23;102860.38;5033345;28;20053;-69
2022/03/24 06:02:21;;;;;;;12.98;9.50;;;;;;;18.98;37.96;102857.81;5034687;28;20103;-68
2022/03/24 06:04:47;;;;;;;13.38;10.32;;;;;;;18.95;37.89;102855.31;5034203;28;20017;-68
2022/03/24 06:07:14;;;;;;;13.02;9.80;;;;;;;18.96;38.24;102861.44;5033642;28;20028;-68
2022/03/24 06:09:40;;;;;;;13.80;10.20;;;;;;;19.01;38.63;102859.44;5034320;28;20021;-68
2022/03/24 06:12:10;;;;;;;16.00;10.93;;;;;;;19.10;38.45;102863.38;5034352;28;20048;-70
2022/03/24 06:14:36;;;;;;;20.70;14.93;;;;;;;19.14;34.64;102860.47;5033185;28;20496;-69
2022/03/24 06:17:03;;;;;;;21.90;14.73;;;;;;;18.99;36.22;102859.53;5034373;28;20021;-69
2022/03/24 06:19:28;;;;;;;17.30;11.93;;;;;;;19.13;38.41;102873.78;5034256;28;20488;-70
2022/03/24 06:21:54;;;;;;;14.18;10.02;;;;;;;19.28;39.13;102872.97;5033171;28;20055;-70
2022/03/24 06:24:22;;;;;;;11.60;8.93;;;;;;;19.41;39.17;102870.50;5034430;28;20032;-70
2022/03/24 06:26:48;;;;;;;11.50;8.90;;;;;;;19.56;39.23;102871.44;5033923;28;20027;-68
2022/03/24 06:29:14;;;;;;;11.20;8.73;;;;;;;19.67;39.27;102865.53;5033627;28;20535;-68
2022/03/24 06:31:41;;;;;;;12.70;8.80;;;;;;;19.79;39.35;102861.38;5033755;28;20029;-67
2022/03/24 06:34:07;;;;;;;12.95;8.07;;;;;;;19.88;39.33;102867.00;5033211;28;20473;-67
2022/03/24 06:36:36;;;;;;;10.68;7.60;;;;;;;19.94;39.41;102871.94;5033802;28;20497;-67
2022/03/24 06:39:01;;;;;;;11.73;8.93;;;;;;;20.01;39.35;102875.13;5033932;28;20045;-68
2022/03/24 06:41:27;;;;;;;11.90;7.90;;;;;;;20.04;39.35;102872.25;5033150;28;20064;-68
2022/03/24 06:43:56;;;;;;;11.27;8.18;;;;;;;20.06;39.38;102867.75;5032675;28;20278;-68
2022/03/24 06:46:22;;;;;;;11.95;8.27;;;;;;;20.03;39.57;102865.28;5033807;28;20025;-68
2022/03/24 06:48:47;;;;;;;11.70;8.32;;;;;;;20.02;39.56;102865.38;5032742;28;20421;-68
2022/03/24 06:51:13;;;;;;;15.85;9.30;;;;;;;20.01;38.62;102867.16;5033661;28;20069;-69
2022/03/24 06:53:38;;;;;;;15.37;9.17;;;;;;;20.01;39.49;102871.59;5033551;28;20045;-68
2022/03/24 06:56:05;;;;;;;13.75;8.45;;;;;;;20.02;39.64;102873.31;5032999;28;20738;-71
2022/03/24 06:58:30;;;;;;;12.30;7.72;;;;;;;20.04;39.84;102871.41;5033381;28;20029;-70
2022/03/24 07:00:55;;;;;;;13.35;7.97;;;;;;;20.04;39.84;102876.72;5033182;28;20040;-69
2022/03/24 07:03:21;;;;;;;11.18;7.85;;;;;;;20.03;40.23;102877.66;5032507;28;20083;-70
2022/03/24 07:05:46;;;;;;;13.77;7.95;;;;;;;20.06;40.35;102877.47;5033259;28;20025;-67
2022/03/24 07:08:11;;;;;;;10.93;7.78;;;;;;;20.09;40.26;102879.94;5033622;28;20413;-67
2022/03/24 07:10:37;;;;;;;12.90;7.65;;;;;;;20.10;40.17;102879.00;5032396;28;20029;-69
2022/03/24 07:13:02;;;;;;;12.60;8.38;;;;;;;20.10;40.26;102879.00;5033184;28;20042;-70
2022/03/24 07:15:28;;;;;;;11.90;8.13;;;;;;;20.11;40.51;102880.72;5033481;28;20108;-70
2022/03/24 07:17:53;;;;;;;13.75;8.63;;;;;;;20.14;40.49;102880.53;5032040;28;20029;-70
2022/03/24 07:20:19;;;;;;;11.55;8.15;;;;;;;20.16;40.84;102885.75;5033063;28;20087;-77
2022/03/24 07:22:45;;;;;;;18.33;13.18;;;;;;;20.18;37.02;102875.91;5032981;28;20100;-71
2022/03/24 07:25:11;;;;;;;17.17;12.20;;;;;;;20.24;39.15;102887.00;5032274;28;20079;-68
2022/03/24 07:27:37;;;;;;;13.80;10.35;;;;;;;20.23;39.98;102885.28;5032634;28;20026;-67
2022/03/24 07:30:04;;;;;;;15.88;10.07;;;;;;;20.22;40.17;102888.03;5032947;28;20037;-68
2022/03/24 07:32:30;;;;;;;14.80;9.77;;;;;;;20.20;40.35;102887.25;5031986;28;20032;-68
2022/03/24 07:34:55;;;;;;;14.82;9.82;;;;;;;20.22;40.48;102883.59;5032676;28;20022;-69
2022/03/24 07:37:20;;;;;;;12.25;9.38;;;;;;;20.25;40.57;102888.72;5032241;28;20028;-70
2022/03/24 07:39:46;;;;;;;13.68;9.30;;;;;;;20.28;40.48;102885.88;5032978;28;20381;-70
2022/03/24 07:42:14;;;;;;;16.63;10.32;;;;;;;20.34;39.90;102889.97;5034113;28;20017;-70
2022/03/24 07:44:39;;;;;;;13.18;9.18;;;;;;;20.35;40.39;102883.72;5032120;28;20144;-70
2022/03/24 07:47:04;;;;;;;14.38;9.43;;;;;;;20.40;40.05;102883.47;5032939;28;20484;-72
2022/03/24 07:49:30;;;;;;;12.07;8.73;;;;;;;20.45;40.34;102882.22;5033163;28;20037;-73
2022/03/24 07:51:55;;;;;;;14.73;9.27;;;;;;;20.49;40.12;102885.56;5032208;28;20051;-66
2022/03/24 07:54:48;;;;;;;13.33;8.17;;;;;;;20.51;40.22;102881.03;5032953;28;20100;-66
2022/03/24 07:57:13;;;;;;;11.07;8.32;;;;;;;20.49;40.42;102888.22;5032882;28;20740;-65
2022/03/24 07:59:38;;;;;;;15.07;8.27;;;;;;;20.47;40.61;102892.72;5031378;28;20057;-66
2022/03/24 08:02:04;;;;;;;13.88;8.82;;;;;;;20.47;40.72;102893.59;5032757;28;20270;-70
2022/03/24 08:04:29;;;;;;;12.45;8.45;;;;;;;20.45;40.88;102889.34;5033406;28;20022;-68
2022/03/24 08:06:55;;;;;;;15.57;8.27;;;;;;;20.42;41.21;102900.94;5032460;28;20113;-78
2022/03/24 08:09:20;;;;;;;13.27;8.50;;;;;;;20.45;41.20;102894.63;5033705;28;20274;-75
2022/03/24 08:11:45;;;;;;;10.70;8.10;;;;;;;20.52;41.09;102898.63;5032883;28;20266;-70
2022/03/24 08:14:10;;;;;;;12.80;7.75;;;;;;;20.57;40.99;102901.84;5033288;28;20770;-69
2022/03/24 08:16:37;;;;;;;14.52;8.95;;;;;;;20.60;40.95;102893.72;5033243;28;20072;-68
2022/03/24 08:19:02;;;;;;;14.73;8.18;;;;;;;20.67;41.03;102902.19;5034385;28;20025;-72
2022/03/24 08:21:28;;;;;;;12.18;8.57;;;;;;;20.72;40.80;102893.97;5033058;28;20017;-70
2022/03/24 08:23:53;;;;;;;12.97;8.27;;;;;;;20.80;40.54;102904.94;5033492;28;20469;-83
2022/03/24 08:26:19;;;;;;;13.38;7.80;;;;;;;20.77;40.77;102902.47;5040075;28;20270;-68
2022/03/24 08:28:44;;;;;;;10.90;7.68;;;;;;;20.78;40.98;102901.56;5037099;28;20406;-82
2022/03/24 08:31:10;;;;;;;10.90;7.55;;;;;;;20.81;40.86;102901.38;5033526;28;20101;-73
2022/03/24 08:33:35;;;;;;;13.63;7.25;;;;;;;20.82;40.97;102905.69;5032511;28;20026;-69
2022/03/24 08:36:00;;;;;;;23.58;15.85;;;;;;;20.68;33.19;102908.31;5033233;28;20018;-64
2022/03/24 08:38:25;;;;;;;19.67;13.93;;;;;;;20.59;36.72;102905.25;5032490;28;20500;-64
2022/03/24 08:40:51;;;;;;;13.50;10.60;;;;;;;20.61;39.04;102905.16;5031171;28;20037;-63
2022/03/24 08:43:17;;;;;;;14.90;8.32;;;;;;;20.61;39.42;102911.31;5032335;28;20026;-64
2022/03/24 08:45:42;;;;;;;11.60;8.32;;;;;;;20.58;39.71;102902.69;5032041;28;20068;-65
2022/03/24 08:48:08;;;;;;;12.88;7.95;;;;;;;20.61;39.78;102908.66;5031800;28;20421;-64
2022/03/24 08:50:34;;;;;;;11.50;7.40;;;;;;;20.63;39.58;102912.09;5032267;28;20034;-69
2022/03/24 08:53:00;;;;;;;12.05;7.80;;;;;;;20.64;40.12;102907.66;5032623;28;20040;-73
2022/03/24 08:55:25;;;;;;;12.93;7.97;;;;;;;20.63;40.36;102906.78;5032518;28;20025;-71
2022/03/24 08:57:51;;;;;;;12.05;7.13;;;;;;;20.61;40.31;102902.53;5033676;28;20052;-73
2022/03/24 09:00:17;;;;;;;13.30;7.88;;;;;;;20.58;40.41;102908.84;5035606;28;20425;-72
2022/03/24 09:02:44;;;;;;;12.68;7.50;;;;;;;20.56;40.62;102909.91;5033005;28;20035;-77
2022/03/24 09:05:10;;;;;;;12.65;7.47;;;;;;;20.52;40.43;102916.31;5033903;28;20033;-69
2022/03/24 09:07:36;;;;;;;11.23;7.35;;;;;;;20.51;40.72;102912.81;5036512;28;20077;-68
2022/03/24 09:10:05;;;;;;;10.52;6.88;;;;;;;20.46;40.75;102915.72;5035096;28;20029;-68
2022/03/24 09:12:31;;;;;;;9.75;6.45;;;;;;;20.48;40.77;102918.28;5039228;28;20041;-71
2022/03/24 09:14:56;;;;;;;11.55;7.78;;;;;;;20.48;40.78;102916.47;5036997;28;20021;-69
2022/03/24 09:17:21;;;;;;;14.43;8.10;;;;;;;20.50;39.58;102916.38;5035497;28;20473;-70
2022/03/24 09:19:47;;;;;;;13.23;7.50;;;;;;;20.54;40.62;102917.94;5037504;28;20352;-71
2022/03/24 09:22:12;;;;;;;12.57;6.93;;;;;;;20.60;40.55;102914.03;5037164;28;20435;-67
2022/03/24 09:24:37;;;;;;;12.43;6.70;;;;;;;20.62;40.77;102910.38;5034503;28;20028;-78
2022/03/24 09:27:05;;;;;;;12.00;7.10;;;;;;;20.70;40.53;102923.19;5035477;28;20429;-72
2022/03/24 09:29:31;;;;;;;12.30;6.72;;;;;;;20.71;40.54;102921.41;5035430;28;20029;-71
2022/03/24 09:31:56;;;;;;;10.35;6.55;;;;;;;20.75;40.52;102921.13;5036147;28;20017;-69
2022/03/24 09:34:22;;;;;;;14.47;6.47;;;;;;;20.78;40.64;102926.25;5037006;28;20524;-70
2022/03/24 09:36:47;;;;;;;11.27;6.22;;;;;;;20.77;40.66;102918.38;5034752;28;20270;-75
2022/03/24 09:39:14;;;;;;;8.82;6.30;;;;;;;20.75;41.12;102922.94;5035934;28;20025;-71
2022/03/24 09:41:40;;;;;;;11.98;6.35;;;;;;;20.76;41.47;102919.31;5037520;28;20037;-72
2022/03/24 09:44:07;;;;;;;11.02;6.85;;;;;;;20.80;41.73;102924.34;5035747;28;20029;-76
2022/03/24 09:46:32;;;;;;;11.85;6.30;;;;;;;20.81;41.40;102919.91;5035682;28;20389;-72
2022/03/24 09:48:59;;;;;;;12.23;6.20;;;;;;;20.77;41.69;102919.22;5035799;28;20026;-72
2022/03/24 09:51:27;;;;;;;12.00;6.32;;;;;;;20.89;41.31;102920.28;5034520;28;20026;-71
2022/03/24 09:53:52;;;;;;;12.38;6.43;;;;;;;21.04;41.07;102918.50;5035120;28;20037;-73
2022/03/24 09:56:18;;;;;;;11.73;6.82;;;;;;;21.15;41.37;102915.19;5035788;28;20021;-74
2022/03/24 09:58:44;;;;;;;11.25;6.93;;;;;;;21.19;41.43;102917.56;5034079;28;20428;-75
2022/03/24 10:01:10;;;;;;;10.20;6.00;;;;;;;21.24;41.22;102919.06;5034916;28;20025;-73
2022/03/24 10:03:36;;;;;;;8.75;5.88;;;;;;;21.21;40.28;102912.16;5034541;28;20033;-74
2022/03/24 10:06:07;;;;;;;14.48;6.05;;;;;;;21.27;40.56;102921.53;5034022;28;20068;-74
2022/03/24 10:08:34;;;;;;;10.02;5.82;;;;;;;21.27;40.69;102925.06;5034659;28;20469;-73
2022/03/24 10:11:05;;;;;;;10.00;5.75;;;;;;;21.29;40.92;102919.66;5034553;28;20030;-71
2022/03/24 10:13:54;;;;;;;10.55;5.60;;;;;;;21.29;40.82;102909.88;5033749;28;20037;-73
2022/03/24 10:16:32;;;;;;;13.65;5.90;;;;;;;21.31;40.84;102918.59;5034633;28;20036;-75
2022/03/24 10:19:02;;;;;;;13.23;5.75;;;;;;;21.29;41.15;102917.84;5032887;28;20018;-74
2022/03/24 10:21:29;;;;;;;8.70;5.30;;;;;;;21.28;41.15;102910.81;5034187;28;20029;-74
2022/03/24 10:23:56;;;;;;;10.35;5.80;;;;;;;21.26;41.10;102903.94;5034234;28;20032;-74
2022/03/24 10:26:21;;;;;;;11.02;5.93;;;;;;;21.24;41.18;102901.38;5033699;28;20029;-74
2022/03/24 10:28:59;;;;;;;14.40;6.45;;;;;;;21.22;41.24;102897.97;5034201;28;20033;-73
2022/03/24 10:31:36;;;;;;;16.10;6.10;;;;;;;21.26;41.43;102906.59;5034242;28;20029;-74
2022/03/24 10:34:02;;;;;;;10.23;5.55;;;;;;;21.29;41.78;102901.09;5033488;28;20492;-75
2022/03/24 10:36:28;;;;;;;13.35;5.50;;;;;;;21.25;41.77;102903.06;5034338;28;20022;-75
2022/03/24 10:38:59;;;;;;;11.07;5.50;;;;;;;21.24;41.38;102900.50;5034054;28;20025;-74
2022/03/24 10:41:27;;;;;;;11.10;5.18;;;;;;;21.21;41.52;102904.22;5033622;28;20029;-74
2022/03/24 10:43:58;;;;;;;15.02;6.00;;;;;;;21.17;41.22;102900.03;5033847;28;20047;-70
2022/03/24 10:46:32;;;;;;;12.32;5.80;;;;;;;21.23;42.08;102898.81;5033859;28;20105;-70
2022/03/24 10:48:58;;;;;;;;;;;;;;;21.24;41.81;102904.03;5033396;28;20358;-67
2022/03/24 10:51:33;;;;;;;8.82;5.30;;;;;;;21.22;41.28;102894.44;5033868;28;19920;-68
2022/03/24 10:54:22;;;;;;;10.70;5.32;;;;;;;21.23;41.49;102894.34;5033782;28;20021;-69
2022/03/24 10:57:01;;;;;;;9.95;5.25;;;;;;;21.22;41.67;102905.06;5033345;28;20080;-72
2022/03/24 10:59:32;;;;;;;14.30;6.40;;;;;;;21.19;41.99;102896.34;5033739;28;20029;-69
2022/03/24 11:01:57;;;;;;;12.07;7.75;;;;;;;21.19;41.81;102896.34;5032655;28;20424;-73
2022/03/24 11:04:23;;;;;;;12.00;9.20;;;;;;;21.15;41.65;102900.13;5033624;28;20477;-69
2022/03/24 11:06:49;;;;;;;14.35;10.20;;;;;;;21.16;42.08;102895.69;5033121;28;20275;-69
2022/03/24 11:09:32;;;;;;;16.75;11.57;;;;;;;21.15;42.11;102897.47;5032539;28;20101;-71
2022/03/24 11:12:35;;;;;;;17.77;13.27;;;;;;;21.14;42.44;102895.78;5033199;28;20434;-72
2022/03/24 11:15:04;;;;;;;16.40;14.70;;;;;;;21.14;42.65;102897.56;5033453;28;20036;-69